createdAt,value
2024-04-30T00:00:27.225Z,1.23
2024-04-30T00:02:54.564Z,2.60
2024-04-30T00:05:21.546Z,1.60
2024-04-30T00:07:48.538Z,2.75
2024-04-30T00:10:15.545Z,1.35
2024-04-30T00:12:42.894Z,1.50
2024-04-30T00:15:09.936Z,1.60
2024-04-30T00:17:37.261Z,1.33
2024-04-30T00:20:04.598Z,1.75
2024-04-30T00:22:31.536Z,1.27
2024-04-30T00:24:58.483Z,2.30
2024-04-30T00:27:25.419Z,1.65
2024-04-30T00:29:52.398Z,1.52
2024-04-30T00:32:19.423Z,1.33
2024-04-30T00:34:46.325Z,1.08
2024-04-30T00:37:13.380Z,1.80
2024-04-30T00:39:40.278Z,1.65
2024-04-30T00:42:07.661Z,2.47
2024-04-30T00:44:35.030Z,1.88
2024-04-30T00:47:02.506Z,1.65
2024-04-30T00:49:30.383Z,1.83
2024-04-30T00:54:26.840Z,1.58
2024-04-30T00:56:55.286Z,1.42
2024-04-30T00:59:22.592Z,1.65
2024-04-30T01:01:50.013Z,0.90
2024-04-30T01:04:17.110Z,0.80
2024-04-30T01:06:44.452Z,2.60
2024-04-30T01:09:11.830Z,1.83
2024-04-30T01:11:38.828Z,1.45
2024-04-30T01:14:06.174Z,0.50
2024-04-30T01:16:33.550Z,1.17
2024-04-30T01:19:01.054Z,1.27
2024-04-30T01:21:28.423Z,0.73
2024-04-30T01:23:55.855Z,1.75
2024-04-30T01:26:23.187Z,1.17
2024-04-30T01:28:50.463Z,0.77
2024-04-30T01:31:17.840Z,1.63
2024-04-30T01:33:45.202Z,1.20
2024-04-30T01:36:12.570Z,0.63
2024-04-30T01:38:39.884Z,1.05
2024-04-30T01:41:07.189Z,0.82
2024-04-30T01:43:34.603Z,2.03
2024-04-30T01:46:02.032Z,1.30
2024-04-30T01:48:29.502Z,1.25
2024-04-30T01:50:56.938Z,1.02
2024-04-30T01:53:23.856Z,0.47
2024-04-30T01:55:51.211Z,1.17
2024-04-30T01:58:18.587Z,1.25
2024-04-30T02:00:45.982Z,4.32
2024-04-30T02:03:13.383Z,0.77
2024-04-30T02:05:40.695Z,2.42
2024-04-30T02:08:08.104Z,0.88
2024-04-30T02:10:35.462Z,1.92
2024-04-30T02:13:02.875Z,1.10
2024-04-30T02:15:30.226Z,1.42
2024-04-30T02:17:57.626Z,2.08
2024-04-30T02:20:24.969Z,0.80
2024-04-30T02:22:52.302Z,4.32
2024-04-30T02:25:19.622Z,0.63
2024-04-30T02:27:46.903Z,1.52
2024-04-30T02:30:32.906Z,0.57
2024-04-30T02:33:18.856Z,1.10
2024-04-30T02:35:46.255Z,1.08
2024-04-30T02:38:13.551Z,1.25
2024-04-30T02:40:40.590Z,1.23
2024-04-30T02:43:08.034Z,4.03
2024-04-30T02:45:35.390Z,1.40
2024-04-30T02:48:02.724Z,0.95
2024-04-30T02:50:30.033Z,1.63
2024-04-30T02:52:57.332Z,2.03
2024-04-30T02:55:24.775Z,1.42
2024-04-30T02:57:51.934Z,1.00
2024-04-30T03:00:19.246Z,1.10
2024-04-30T03:02:49.150Z,3.22
2024-04-30T03:05:16.507Z,1.63
2024-04-30T03:07:43.784Z,2.40
2024-04-30T03:10:11.099Z,1.45
2024-04-30T03:12:38.397Z,1.77
2024-04-30T03:15:06.348Z,0.85
2024-04-30T03:20:00.585Z,0.60
2024-04-30T03:22:27.968Z,2.53
2024-04-30T03:24:55.374Z,2.88
2024-04-30T03:27:22.703Z,1.48
2024-04-30T03:29:49.985Z,1.52
2024-04-30T03:32:17.303Z,1.08
2024-04-30T03:34:44.683Z,1.40
2024-04-30T03:37:12.064Z,1.08
2024-04-30T03:39:39.362Z,0.82
2024-04-30T03:42:07.032Z,2.00
2024-04-30T03:44:34.489Z,1.60
2024-04-30T03:47:01.916Z,1.17
2024-04-30T03:49:29.332Z,2.88
2024-04-30T03:51:56.655Z,1.50
2024-04-30T03:54:23.989Z,1.23
2024-04-30T03:56:51.322Z,0.73
2024-04-30T03:59:19.562Z,1.20
2024-04-30T04:01:46.913Z,2.67
2024-04-30T04:04:14.365Z,1.40
2024-04-30T04:06:41.680Z,1.83
2024-04-30T04:09:08.967Z,0.93
2024-04-30T04:11:55.185Z,1.63
2024-04-30T04:17:11.408Z,2.78
2024-04-30T04:19:39.094Z,1.15
2024-04-30T04:22:06.697Z,1.73
2024-04-30T04:24:34.647Z,2.65
2024-04-30T04:29:29.189Z,1.77
2024-04-30T04:31:57.879Z,1.48
2024-04-30T04:34:27.092Z,1.40
2024-04-30T04:36:54.506Z,1.27
2024-04-30T04:39:22.183Z,1.10
2024-04-30T04:41:49.546Z,1.45
2024-04-30T04:44:16.871Z,0.80
2024-04-30T04:46:44.322Z,1.80
2024-04-30T04:49:11.737Z,1.38
2024-04-30T04:51:39.034Z,1.05
2024-04-30T04:54:06.072Z,1.02
2024-04-30T04:56:33.363Z,1.35
2024-04-30T04:59:01.805Z,1.08
2024-04-30T05:01:29.326Z,0.93
2024-04-30T05:03:56.728Z,1.60
2024-04-30T05:06:23.876Z,1.42
2024-04-30T05:08:51.239Z,1.48
2024-04-30T05:11:18.558Z,1.13
2024-04-30T05:13:45.703Z,1.58
2024-04-30T05:16:13.147Z,2.05
2024-04-30T05:18:40.461Z,1.25
2024-04-30T05:21:07.841Z,1.38
2024-04-30T05:23:35.195Z,1.17
2024-04-30T05:26:02.569Z,1.00
2024-04-30T05:28:29.942Z,1.20
2024-04-30T05:30:57.254Z,0.73
2024-04-30T05:33:24.820Z,1.05
2024-04-30T05:35:52.252Z,0.80
2024-04-30T05:38:19.534Z,1.38
2024-04-30T05:40:46.917Z,1.67
2024-04-30T05:43:16.971Z,1.50
2024-04-30T05:45:44.377Z,2.75
2024-04-30T05:48:11.754Z,2.22
2024-04-30T05:50:39.081Z,3.33
2024-04-30T05:53:08.887Z,2.20
2024-04-30T05:55:36.545Z,2.30
2024-04-30T05:58:04.059Z,1.40
2024-04-30T06:00:31.541Z,2.97
2024-04-30T06:05:30.984Z,3.03
2024-04-30T06:07:58.427Z,2.47
2024-04-30T06:10:25.851Z,1.65
2024-04-30T06:12:53.144Z,2.30
2024-04-30T06:17:47.512Z,1.70
2024-04-30T06:20:14.617Z,1.23
2024-04-30T06:22:41.950Z,4.30
2024-04-30T06:25:09.318Z,2.10
2024-04-30T06:27:36.638Z,1.38
2024-04-30T06:32:30.539Z,1.83
2024-04-30T06:34:58.140Z,1.95
2024-04-30T06:37:25.502Z,1.92
2024-04-30T06:39:52.845Z,0.75
2024-04-30T06:42:20.252Z,2.13
2024-04-30T06:44:47.207Z,2.85
2024-04-30T06:47:14.602Z,1.25
2024-04-30T06:49:41.986Z,2.03
2024-04-30T06:52:09.102Z,1.95
2024-04-30T06:54:36.888Z,2.97
2024-04-30T06:57:04.001Z,1.33
2024-04-30T06:59:31.276Z,2.53
2024-04-30T07:01:58.679Z,0.70
2024-04-30T07:06:53.132Z,0.95
2024-04-30T07:09:20.404Z,3.40
2024-04-30T07:11:47.800Z,1.85
2024-04-30T07:14:15.186Z,1.30
2024-04-30T07:16:51.699Z,1.05
2024-04-30T07:19:24.045Z,2.10
2024-04-30T07:21:51.384Z,1.15
2024-04-30T07:24:18.708Z,1.10
2024-04-30T07:26:46.010Z,1.35
2024-04-30T07:29:13.435Z,0.93
2024-04-30T07:31:41.070Z,1.85
2024-04-30T07:34:08.312Z,1.38
2024-04-30T07:36:35.748Z,0.90
2024-04-30T07:41:30.162Z,0.90
2024-04-30T07:43:57.498Z,0.90
2024-04-30T07:46:24.889Z,0.85
2024-04-30T07:48:54.470Z,0.63
2024-04-30T07:51:22.026Z,1.45
2024-04-30T07:56:16.278Z,1.35
2024-04-30T07:58:43.603Z,1.15
2024-04-30T08:01:11.040Z,0.80
2024-04-30T08:03:38.498Z,1.02
2024-04-30T08:06:11.074Z,1.17
2024-04-30T08:11:12.964Z,0.93
2024-04-30T08:13:42.750Z,0.98
2024-04-30T08:16:12.533Z,1.02
2024-04-30T08:18:39.870Z,1.13
2024-04-30T08:21:08.092Z,1.92
2024-04-30T08:23:36.059Z,2.08
2024-04-30T08:26:03.394Z,1.77
2024-04-30T08:28:30.765Z,0.70
2024-04-30T08:30:58.741Z,1.20
2024-04-30T08:33:26.624Z,1.75
2024-04-30T08:38:20.885Z,0.82
2024-04-30T08:43:16.314Z,1.05
2024-04-30T08:45:44.054Z,3.03
2024-04-30T08:48:12.823Z,1.67
2024-04-30T08:50:42.668Z,0.50
2024-04-30T08:53:10.556Z,1.40
2024-04-30T08:55:40.248Z,2.45
2024-04-30T08:58:07.676Z,1.30
2024-04-30T09:03:04.025Z,2.60
2024-04-30T09:05:33.348Z,2.13
2024-04-30T09:08:02.091Z,3.03
2024-04-30T09:10:29.475Z,1.67
2024-04-30T09:13:00.068Z,4.55
2024-04-30T09:15:27.750Z,2.28
2024-04-30T09:17:55.219Z,1.70
2024-04-30T09:20:22.673Z,1.20
2024-04-30T09:22:53.416Z,1.27
2024-04-30T09:25:32.192Z,1.30
2024-04-30T09:27:59.681Z,1.20
2024-04-30T09:30:27.047Z,2.88
2024-04-30T09:32:54.440Z,2.53
2024-04-30T09:35:27.716Z,1.27
2024-04-30T09:38:01.701Z,0.90
2024-04-30T09:40:32.725Z,0.68
2024-04-30T09:43:00.853Z,0.63
2024-04-30T09:45:31.321Z,1.27
2024-04-30T09:47:58.827Z,2.10
2024-04-30T09:50:26.205Z,1.83
2024-04-30T09:52:57.020Z,1.23
2024-04-30T09:55:27.063Z,2.38
2024-04-30T09:57:55.099Z,1.08
2024-04-30T10:00:25.998Z,2.35
2024-04-30T10:03:00.599Z,1.83
2024-04-30T10:05:33.243Z,1.45
2024-04-30T10:08:01.874Z,1.77
2024-04-30T10:10:32.855Z,2.83
2024-04-30T10:13:14.419Z,1.00
2024-04-30T10:15:42.105Z,1.50
2024-04-30T10:18:11.171Z,1.02
2024-04-30T10:20:38.997Z,1.20
2024-04-30T10:23:06.960Z,2.03
2024-04-30T10:25:34.614Z,1.42
2024-04-30T10:30:36.391Z,1.65
2024-04-30T10:33:04.605Z,1.52
2024-04-30T10:35:44.139Z,1.38
2024-04-30T10:38:11.734Z,1.33
2024-04-30T10:40:39.134Z,2.90
2024-04-30T10:43:06.622Z,1.55
2024-04-30T10:48:01.182Z,1.48
2024-04-30T10:50:29.915Z,2.63
2024-04-30T10:53:01.843Z,2.22
2024-04-30T10:55:29.427Z,1.88
2024-04-30T10:57:56.942Z,2.17
2024-04-30T11:00:25.788Z,1.92
2024-04-30T11:02:56.668Z,1.58
2024-04-30T11:05:24.415Z,1.27
2024-04-30T11:07:58.250Z,1.30
2024-04-30T11:10:29.344Z,1.08
2024-04-30T11:12:59.977Z,1.20
2024-04-30T11:15:27.542Z,1.17
2024-04-30T11:17:55.205Z,3.53
2024-04-30T11:20:22.685Z,1.48
2024-04-30T11:25:17.025Z,3.17
2024-04-30T11:27:44.394Z,2.38
2024-04-30T11:30:11.686Z,1.75
2024-04-30T11:32:39.102Z,3.05
2024-04-30T11:37:34.831Z,1.42
2024-04-30T11:40:02.219Z,1.80
2024-04-30T11:42:34.668Z,2.25
2024-04-30T11:45:09.138Z,3.22
2024-04-30T11:47:36.696Z,2.22
2024-04-30T11:52:31.112Z,1.98
2024-04-30T11:54:58.582Z,1.55
2024-04-30T11:59:54.559Z,1.17
2024-04-30T12:02:22.254Z,2.15
2024-04-30T12:04:50.013Z,1.60
2024-04-30T12:07:17.552Z,2.20
2024-04-30T12:09:44.875Z,3.17
2024-04-30T12:12:12.226Z,1.92
2024-04-30T12:14:41.100Z,3.00
2024-04-30T12:17:08.630Z,3.15
2024-04-30T12:22:04.333Z,0.98
2024-04-30T12:24:31.716Z,1.77
2024-04-30T12:26:59.069Z,2.65
2024-04-30T12:29:26.410Z,1.90
2024-04-30T12:31:53.791Z,2.15
2024-04-30T12:34:21.189Z,2.15
2024-04-30T12:36:48.724Z,2.30
2024-04-30T12:41:42.908Z,2.00
2024-04-30T12:44:10.759Z,1.70
2024-04-30T12:46:38.342Z,1.95
2024-04-30T12:51:32.675Z,1.77
2024-04-30T12:54:00.099Z,2.47
2024-04-30T12:56:27.479Z,3.08
2024-04-30T12:58:54.862Z,3.78
2024-04-30T13:01:24.530Z,1.80
2024-04-30T13:03:53.660Z,2.90
2024-04-30T13:08:48.284Z,2.10
2024-04-30T13:11:15.676Z,3.03
2024-04-30T13:13:43.122Z,2.25
2024-04-30T13:16:10.540Z,1.90
2024-04-30T13:18:37.976Z,2.22
2024-04-30T13:21:05.403Z,2.78
2024-04-30T13:23:36.667Z,3.00
2024-04-30T13:26:04.021Z,2.00
2024-04-30T13:28:31.533Z,1.15
2024-04-30T13:33:29.352Z,2.08
2024-04-30T13:35:56.909Z,2.05
2024-04-30T13:38:24.307Z,2.97
2024-04-30T13:40:51.688Z,1.98
2024-04-30T13:43:19.119Z,3.60
2024-04-30T13:45:46.515Z,2.03
2024-04-30T13:48:13.900Z,2.45
2024-04-30T13:50:41.338Z,2.17
2024-04-30T13:53:09.431Z,1.88
2024-04-30T13:55:36.877Z,1.77
2024-04-30T13:58:06.978Z,1.98
2024-04-30T14:00:34.476Z,1.50
2024-04-30T14:03:01.976Z,1.20
2024-04-30T14:05:29.333Z,1.58
2024-04-30T14:07:56.758Z,3.08
2024-04-30T14:10:24.082Z,1.77
2024-04-30T14:12:51.463Z,1.73
2024-04-30T14:15:18.880Z,2.20
2024-04-30T14:17:46.418Z,1.33
2024-04-30T14:22:41.747Z,1.20
2024-04-30T14:25:09.469Z,1.85
2024-04-30T14:30:04.555Z,1.38
2024-04-30T14:32:31.928Z,0.88
2024-04-30T14:34:59.512Z,2.55
2024-04-30T14:37:26.893Z,1.60
2024-04-30T14:39:55.189Z,4.88
2024-04-30T14:42:23.661Z,1.35
2024-04-30T14:44:53.941Z,1.80
2024-04-30T14:47:26.924Z,1.05
2024-04-30T14:49:55.003Z,13.68
2024-04-30T14:52:22.570Z,2.88
2024-04-30T14:54:50.018Z,2.00
2024-04-30T14:57:17.387Z,1.30
2024-04-30T14:59:44.748Z,1.63
2024-04-30T15:02:13.017Z,1.30
2024-04-30T15:04:40.397Z,1.23
2024-04-30T15:07:07.783Z,1.48
2024-04-30T15:09:35.822Z,1.88
2024-04-30T15:12:03.317Z,1.63
2024-04-30T15:14:30.850Z,1.83
2024-04-30T15:16:58.780Z,3.55
2024-04-30T15:19:26.323Z,1.75
2024-04-30T15:21:53.858Z,4.18
2024-04-30T15:24:21.226Z,4.28
2024-04-30T15:26:48.619Z,0.90
2024-04-30T15:29:16.044Z,2.45
2024-04-30T15:31:43.639Z,2.00
2024-04-30T15:34:11.439Z,1.73
2024-04-30T15:39:10.402Z,2.72
2024-04-30T15:44:04.567Z,2.92
2024-04-30T15:46:31.949Z,1.27
2024-04-30T15:48:59.285Z,1.45
2024-04-30T15:51:26.587Z,1.80
2024-04-30T15:53:53.939Z,3.47
2024-04-30T15:56:21.322Z,3.58
2024-04-30T15:58:49.662Z,5.75
2024-04-30T16:01:17.300Z,4.10
2024-04-30T16:03:45.175Z,2.22
2024-04-30T16:06:12.724Z,1.77
2024-04-30T16:08:40.378Z,1.20
2024-04-30T16:11:10.404Z,1.63
2024-04-30T16:13:40.074Z,1.13
2024-04-30T16:16:16.091Z,4.50
2024-04-30T16:18:47.157Z,1.90
2024-04-30T16:21:15.321Z,1.17
2024-04-30T16:23:42.944Z,1.40
2024-04-30T16:26:10.632Z,1.55
2024-04-30T16:31:05.003Z,0.40
2024-04-30T16:33:32.561Z,1.60
2024-04-30T16:38:26.975Z,1.13
2024-04-30T16:40:55.861Z,1.17
2024-04-30T16:43:23.262Z,1.45
2024-04-30T16:45:50.859Z,2.65
2024-04-30T16:50:45.467Z,1.10
2024-04-30T16:53:12.787Z,2.83
2024-04-30T16:55:40.094Z,1.38
2024-04-30T16:58:07.528Z,1.13
2024-04-30T17:00:35.009Z,1.45
2024-04-30T17:03:02.549Z,1.35
2024-04-30T17:05:29.960Z,0.93
2024-04-30T17:07:57.354Z,2.25
2024-04-30T17:10:26.784Z,1.13
2024-04-30T17:12:54.201Z,1.17
2024-04-30T17:15:22.107Z,1.40
2024-04-30T17:17:49.496Z,0.77
2024-04-30T17:20:16.601Z,0.80
2024-04-30T17:22:43.920Z,1.25
2024-04-30T17:25:11.249Z,0.75
2024-04-30T17:27:38.618Z,1.48
2024-04-30T17:30:06.215Z,1.40
2024-04-30T17:32:33.530Z,1.20
2024-04-30T17:35:00.996Z,0.50
2024-04-30T17:37:28.322Z,0.95
2024-04-30T17:39:55.748Z,1.15
2024-04-30T17:42:23.173Z,1.02
2024-04-30T17:44:50.519Z,1.75
2024-04-30T17:47:18.565Z,2.50
2024-04-30T17:49:45.943Z,3.72
2024-04-30T17:52:13.557Z,0.95
2024-04-30T17:54:41.050Z,1.10
2024-04-30T17:57:09.353Z,1.60
2024-04-30T17:59:36.732Z,1.70
2024-04-30T18:02:04.243Z,2.25
2024-04-30T18:04:31.680Z,2.22
2024-04-30T18:06:59.205Z,2.30
2024-04-30T18:09:26.616Z,2.15
2024-04-30T18:11:53.986Z,2.25
2024-04-30T18:14:21.104Z,2.47
2024-04-30T18:16:48.525Z,1.58
2024-04-30T18:19:16.664Z,2.28
2024-04-30T18:21:44.603Z,4.18
2024-04-30T18:24:12.097Z,1.23
2024-04-30T18:26:43.037Z,1.63
2024-04-30T18:29:10.775Z,1.20
2024-04-30T18:34:05.311Z,2.15
2024-04-30T18:36:37.200Z,2.67
2024-04-30T18:39:05.675Z,2.33
2024-04-30T18:41:33.157Z,5.03
2024-04-30T18:44:00.999Z,3.60
2024-04-30T18:46:28.447Z,3.85
2024-04-30T18:48:56.063Z,8.60
2024-04-30T18:51:23.864Z,16.40
2024-04-30T18:53:51.236Z,11.38
2024-04-30T18:56:18.809Z,5.15
2024-04-30T18:58:47.131Z,4.53
2024-04-30T19:01:15.757Z,4.93
2024-04-30T19:03:43.465Z,5.05
2024-04-30T19:06:11.278Z,5.30
2024-04-30T19:11:06.893Z,2.55
2024-04-30T19:13:34.741Z,2.78
2024-04-30T19:18:29.911Z,4.60
2024-04-30T19:23:24.706Z,3.55
2024-04-30T19:28:18.871Z,4.57
2024-04-30T19:30:45.997Z,4.05
2024-04-30T19:33:13.415Z,2.72
2024-04-30T19:35:40.817Z,4.75
2024-04-30T19:38:10.856Z,4.10
2024-04-30T19:40:38.473Z,7.25
2024-04-30T19:43:06.019Z,6.93
2024-04-30T19:45:33.365Z,5.90
2024-04-30T19:48:00.736Z,4.22
2024-04-30T19:50:28.139Z,4.05
2024-04-30T19:52:55.526Z,9.98
2024-04-30T19:55:22.900Z,7.45
2024-04-30T19:57:50.471Z,4.45
2024-04-30T20:00:17.966Z,3.28
2024-04-30T20:02:45.975Z,3.75
2024-04-30T20:05:13.409Z,3.03
2024-04-30T20:07:41.036Z,4.90
2024-04-30T20:10:09.303Z,3.00
2024-04-30T20:12:36.712Z,4.88
2024-04-30T20:15:04.354Z,4.30
2024-04-30T20:17:31.853Z,3.72
2024-04-30T20:19:59.186Z,3.85
2024-04-30T20:22:26.557Z,3.92
2024-04-30T20:24:53.917Z,3.47
2024-04-30T20:27:21.342Z,2.00
2024-04-30T20:29:48.705Z,3.95
2024-04-30T20:32:16.085Z,2.10
2024-04-30T20:34:43.463Z,3.33
2024-04-30T20:37:10.828Z,4.55
2024-04-30T20:39:38.315Z,3.53
2024-04-30T20:42:08.906Z,3.72
2024-04-30T20:44:36.251Z,3.30
2024-04-30T20:47:03.334Z,5.20
2024-04-30T20:49:30.654Z,3.65
2024-04-30T20:51:58.149Z,4.50
2024-04-30T20:54:25.556Z,5.57
2024-04-30T20:56:52.974Z,3.55
2024-04-30T20:59:20.298Z,5.13
2024-04-30T21:01:47.721Z,3.95
2024-04-30T21:04:15.174Z,4.85
2024-04-30T21:06:42.673Z,4.22
2024-04-30T21:09:10.199Z,4.45
2024-04-30T21:11:37.512Z,3.10
2024-04-30T21:14:04.906Z,4.43
2024-04-30T21:16:36.864Z,4.75
2024-04-30T21:19:04.274Z,4.60
2024-04-30T21:21:31.689Z,3.70
2024-04-30T21:23:59.032Z,4.10
2024-04-30T21:26:26.387Z,5.03
2024-04-30T21:28:53.666Z,4.30
2024-04-30T21:31:20.989Z,4.50
2024-04-30T21:33:48.395Z,3.00
2024-04-30T21:38:43.014Z,3.22
2024-04-30T21:41:10.431Z,3.08
2024-04-30T21:43:37.719Z,5.00
2024-04-30T21:46:04.935Z,5.40
2024-04-30T21:48:32.385Z,5.43
2024-04-30T21:50:59.719Z,8.90
2024-04-30T21:53:27.118Z,6.57
2024-04-30T21:55:54.481Z,4.85
2024-04-30T21:58:21.779Z,7.07
2024-04-30T22:00:49.809Z,6.50
2024-04-30T22:03:17.719Z,5.32
2024-04-30T22:05:45.141Z,4.28
2024-04-30T22:08:12.460Z,5.05
2024-04-30T22:10:39.811Z,9.25
2024-04-30T22:13:07.391Z,6.57
2024-04-30T22:15:34.803Z,6.20
2024-04-30T22:18:02.254Z,5.10
2024-04-30T22:20:30.839Z,6.30
2024-04-30T22:22:58.221Z,5.72
2024-04-30T22:25:25.641Z,7.70
2024-04-30T22:27:53.072Z,5.35
2024-04-30T22:30:20.889Z,4.80
2024-04-30T22:32:49.402Z,7.38
2024-04-30T22:35:16.870Z,5.13
2024-04-30T22:37:44.192Z,6.35
2024-04-30T22:40:11.581Z,11.90
2024-04-30T22:42:39.812Z,8.90
2024-04-30T22:47:34.129Z,5.32
2024-04-30T22:50:01.486Z,7.20
2024-04-30T22:52:28.804Z,4.43
2024-04-30T22:54:56.199Z,4.70
2024-04-30T22:57:23.615Z,6.13
2024-04-30T22:59:50.923Z,4.72
2024-04-30T23:02:18.213Z,8.05
2024-04-30T23:04:45.689Z,6.88
2024-04-30T23:07:13.117Z,5.13
2024-04-30T23:09:40.426Z,6.43
2024-04-30T23:12:07.806Z,8.60
2024-04-30T23:14:35.231Z,8.13
2024-04-30T23:17:02.669Z,4.18
2024-04-30T23:19:30.032Z,8.82
2024-04-30T23:21:57.461Z,8.90
2024-04-30T23:24:24.828Z,9.02
2024-04-30T23:26:52.191Z,5.68
2024-04-30T23:29:19.509Z,9.50
2024-04-30T23:31:46.873Z,4.85
2024-04-30T23:34:14.504Z,6.30
2024-04-30T23:36:41.569Z,6.90
2024-04-30T23:39:08.899Z,7.88
2024-04-30T23:41:36.252Z,6.35
2024-04-30T23:44:03.628Z,6.72
2024-04-30T23:46:31.007Z,5.93
2024-04-30T23:48:58.449Z,7.97
2024-04-30T23:51:25.840Z,6.32
2024-04-30T23:53:53.226Z,5.50
2024-04-30T23:56:20.586Z,6.72
2024-04-30T23:58:49.522Z,5.03
